Time;durP1;ratioP1;P1;durP2;ratioP2;P2;SDS_P1;SDS_P2;PMS_P1;PMS_P2;Temp;Humidity;BMP_temperature;BMP_pressure;BME280_temperature;BME280_humidity;BME280_pressure;Samples;Min_cycle;Max_cycle;Signal;HPM_P1;HPM_P2
2021/10/15 00:02:07;;;;;;;6.72;3.15;;;13.50;99.90;;;;;;5089929;28;20073;-67
2021/10/15 00:04:33;;;;;;;13.07;2.65;;;13.50;99.90;;;;;;5089067;28;20048;-67
2021/10/15 00:06:59;;;;;;;8.20;3.10;;;13.50;99.90;;;;;;5100163;28;20044;-67
2021/10/15 00:09:24;;;;;;;8.45;2.58;;;13.50;99.90;;;;;;5106529;28;20049;-67
2021/10/15 00:11:50;;;;;;;8.73;3.10;;;13.60;99.90;;;;;;5099869;28;20040;-67
2021/10/15 00:14:16;;;;;;;6.95;3.25;;;13.60;99.90;;;;;;5107016;28;20048;-67
2021/10/15 00:16:42;;;;;;;11.98;2.88;;;13.60;99.90;;;;;;5100250;28;20040;-67
2021/10/15 00:19:08;;;;;;;6.63;2.30;;;13.60;99.90;;;;;;5106196;28;20055;-67
2021/10/15 00:21:33;;;;;;;5.82;3.00;;;13.60;99.90;;;;;;5099463;28;20484;-67
2021/10/15 00:23:59;;;;;;;5.82;2.55;;;13.60;99.90;;;;;;5106143;28;20423;-67
2021/10/15 00:26:25;;;;;;;16.70;2.88;;;13.60;99.90;;;;;;5098304;28;20047;-67
2021/10/15 00:28:50;;;;;;;11.15;3.55;;;13.70;99.90;;;;;;5106123;28;20063;-67
2021/10/15 00:31:16;;;;;;;7.22;2.53;;;13.70;99.90;;;;;;5098770;28;20047;-67
2021/10/15 00:33:42;;;;;;;8.88;2.92;;;13.60;99.90;;;;;;5105773;28;20090;-68
2021/10/15 00:36:08;;;;;;;13.27;3.03;;;13.50;99.90;;;;;;5099497;28;20040;-68
2021/10/15 00:38:34;;;;;;;9.40;2.90;;;13.70;99.90;;;;;;5104825;28;20127;-68
2021/10/15 00:40:59;;;;;;;11.60;2.78;;;13.70;99.90;;;;;;5101186;28;20029;-67
2021/10/15 00:43:25;;;;;;;8.65;3.67;;;13.70;99.90;;;;;;5102701;28;20036;-67
2021/10/15 00:45:51;;;;;;;8.32;3.28;;;13.60;99.90;;;;;;5102968;28;20040;-67
2021/10/15 00:48:18;;;;;;;11.50;3.00;;;13.70;99.90;;;;;;5081560;28;20056;-67
2021/10/15 00:50:45;;;;;;;10.00;3.38;;;13.60;99.90;;;;;;5104517;28;20052;-67
2021/10/15 00:53:11;;;;;;;10.30;2.85;;;13.60;99.90;;;;;;5095263;28;20091;-67
2021/10/15 00:55:37;;;;;;;12.63;3.42;;;13.70;99.90;;;;;;5101167;28;20070;-67
2021/10/15 00:58:03;;;;;;;15.23;3.75;;;13.70;99.90;;;;;;5086859;28;20036;-67
2021/10/15 01:00:29;;;;;;;9.65;3.05;;;13.70;99.90;;;;;;5088589;28;20044;-67
2021/10/15 01:02:55;;;;;;;7.30;2.80;;;13.60;99.90;;;;;;5092864;28;20093;-67
2021/10/15 01:05:22;;;;;;;8.00;2.78;;;13.70;99.90;;;;;;5082420;28;20077;-67
2021/10/15 01:07:48;;;;;;;7.10;2.63;;;13.70;99.90;;;;;;5092259;28;20044;-67
2021/10/15 01:10:15;;;;;;;12.60;3.75;;;13.70;99.90;;;;;;5099457;28;20071;-67
2021/10/15 01:12:41;;;;;;;6.75;3.53;;;13.70;99.90;;;;;;5092598;28;20108;-67
2021/10/15 01:15:07;;;;;;;7.38;3.05;;;13.70;99.90;;;;;;5099786;28;20036;-68
2021/10/15 01:17:33;;;;;;;11.48;3.58;;;13.70;99.90;;;;;;5092102;28;20102;-67
2021/10/15 01:19:59;;;;;;;10.48;3.33;;;13.70;99.90;;;;;;5081404;28;20043;-66
2021/10/15 01:22:27;;;;;;;8.77;3.40;;;13.70;99.90;;;;;;5093938;28;20128;-67
2021/10/15 01:24:53;;;;;;;14.13;3.20;;;13.70;99.90;;;;;;5097105;28;20100;-67
2021/10/15 01:27:19;;;;;;;13.38;3.67;;;13.70;99.90;;;;;;5087533;28;20052;-67
2021/10/15 01:29:45;;;;;;;8.95;3.42;;;13.70;99.90;;;;;;5098616;28;20050;-67
2021/10/15 01:32:13;;;;;;;12.30;3.40;;;13.80;99.90;;;;;;5085427;28;20447;-67
2021/10/15 01:34:39;;;;;;;12.00;3.92;;;13.70;99.90;;;;;;5098323;28;20056;-67
2021/10/15 01:37:04;;;;;;;10.38;3.92;;;13.70;99.90;;;;;;5105590;28;20039;-67
2021/10/15 01:39:30;;;;;;;9.80;3.97;;;13.70;99.90;;;;;;5080987;28;20135;-67
2021/10/15 01:41:56;;;;;;;10.35;3.55;;;13.70;99.90;;;;;;5086266;28;20051;-67
2021/10/15 01:44:22;;;;;;;10.30;4.30;;;13.60;99.90;;;;;;5083659;28;20044;-67
2021/10/15 01:46:48;;;;;;;8.30;3.80;;;13.70;99.90;;;;;;5101926;28;20075;-67
2021/10/15 01:49:13;;;;;;;8.10;3.67;;;13.70;99.90;;;;;;5102894;28;20531;-67
2021/10/15 01:51:39;;;;;;;13.30;3.80;;;13.60;99.90;;;;;;5080475;28;20077;-67
2021/10/15 01:54:06;;;;;;;8.73;4.18;;;13.70;99.90;;;;;;5101591;28;20047;-67
2021/10/15 01:56:33;;;;;;;8.25;4.00;;;13.60;99.90;;;;;;5094248;28;20047;-67
2021/10/15 01:58:59;;;;;;;9.38;3.97;;;13.70;99.90;;;;;;5100988;28;20163;-67
2021/10/15 02:01:25;;;;;;;9.18;3.60;;;13.70;99.90;;;;;;5069531;28;20052;-67
2021/10/15 02:03:51;;;;;;;11.18;4.05;;;13.70;99.90;;;;;;5099020;28;20177;-67
2021/10/15 02:06:17;;;;;;;12.18;3.75;;;13.70;99.90;;;;;;5092645;28;20446;-67
2021/10/15 02:08:43;;;;;;;7.75;3.70;;;13.70;99.90;;;;;;5082104;28;20101;-67
2021/10/15 02:11:08;;;;;;;14.30;5.03;;;13.70;99.90;;;;;;5092187;28;20403;-67
2021/10/15 02:13:34;;;;;;;8.95;3.75;;;13.70;99.90;;;;;;5081774;28;20082;-67
2021/10/15 02:16:00;;;;;;;6.78;3.55;;;13.70;99.90;;;;;;5074522;28;20052;-67
2021/10/15 02:18:26;;;;;;;11.57;3.60;;;13.60;99.90;;;;;;5098905;28;20040;-67
2021/10/15 02:20:52;;;;;;;13.30;4.50;;;13.70;99.90;;;;;;5074419;28;20052;-68
2021/10/15 02:23:17;;;;;;;12.52;3.65;;;13.70;99.90;;;;;;5098818;28;20044;-68
2021/10/15 02:25:43;;;;;;;13.40;4.00;;;13.60;99.90;;;;;;5104287;28;20040;-68
2021/10/15 02:28:09;;;;;;;14.63;4.47;;;13.70;99.90;;;;;;5080593;28;20040;-68
2021/10/15 02:30:34;;;;;;;11.13;4.78;;;13.60;99.90;;;;;;5086694;28;20044;-68
2021/10/15 02:33:02;;;;;;;13.48;4.47;;;13.60;99.90;;;;;;5080278;28;20048;-68
2021/10/15 02:35:29;;;;;;;12.70;4.30;;;13.60;99.90;;;;;;5100143;28;20051;-68
2021/10/15 02:37:57;;;;;;;12.85;4.88;;;13.60;99.90;;;;;;5098652;28;20033;-68
2021/10/15 02:40:22;;;;;;;14.18;4.70;;;13.60;99.90;;;;;;5085096;28;20041;-68
2021/10/15 02:42:48;;;;;;;8.90;4.75;;;13.60;99.90;;;;;;5092422;28;20040;-67
2021/10/15 02:45:14;;;;;;;10.15;4.95;;;13.60;99.90;;;;;;5099206;28;20104;-67
2021/10/15 02:47:40;;;;;;;10.95;4.95;;;13.60;99.90;;;;;;5073656;28;20048;-67
2021/10/15 02:50:07;;;;;;;12.05;5.75;;;13.60;99.90;;;;;;5094712;28;20524;-67
2021/10/15 02:52:32;;;;;;;11.25;5.88;;;13.50;99.90;;;;;;5103439;28;20078;-67
2021/10/15 02:54:58;;;;;;;8.52;5.90;;;13.50;99.90;;;;;;5100532;28;20040;-68
2021/10/15 02:57:24;;;;;;;14.95;6.93;;;13.50;99.90;;;;;;5104281;28;20044;-68
2021/10/15 02:59:50;;;;;;;15.15;6.97;;;13.50;99.90;;;;;;5085827;28;20044;-68
2021/10/15 03:02:16;;;;;;;13.48;6.35;;;13.50;99.90;;;;;;5096028;28;20126;-68
2021/10/15 03:04:42;;;;;;;15.27;7.00;;;13.50;99.90;;;;;;5103391;28;20071;-68
2021/10/15 03:07:08;;;;;;;13.35;6.22;;;13.50;99.90;;;;;;5095641;28;20051;-67
2021/10/15 03:09:34;;;;;;;17.42;8.50;;;13.40;99.90;;;;;;5101718;28;20048;-67
2021/10/15 03:11:59;;;;;;;15.48;7.57;;;13.50;99.90;;;;;;5095589;28;20055;-67
2021/10/15 03:14:25;;;;;;;16.80;8.07;;;13.50;99.90;;;;;;5102558;28;20048;-67
2021/10/15 03:16:51;;;;;;;15.00;7.32;;;13.40;99.90;;;;;;5072992;28;20063;-68
2021/10/15 03:19:17;;;;;;;17.25;6.82;;;13.40;99.90;;;;;;5076027;28;20111;-67
2021/10/15 03:21:43;;;;;;;17.52;7.68;;;13.40;99.90;;;;;;5094602;28;20048;-67
2021/10/15 03:24:09;;;;;;;14.93;6.38;;;13.50;99.90;;;;;;5101858;28;20068;-69
2021/10/15 03:26:34;;;;;;;15.30;6.70;;;13.50;99.90;;;;;;5075790;28;20051;-67
2021/10/15 03:29:00;;;;;;;11.40;5.47;;;13.50;99.90;;;;;;5100448;28;20472;-68
2021/10/15 03:31:26;;;;;;;19.40;6.47;;;13.50;99.90;;;;;;5096037;28;20052;-68
2021/10/15 03:33:51;;;;;;;17.95;5.60;;;13.50;99.90;;;;;;5080225;28;20058;-68
2021/10/15 03:36:17;;;;;;;10.18;5.80;;;13.60;99.90;;;;;;5098296;28;20037;-68
2021/10/15 03:38:43;;;;;;;13.00;5.85;;;13.60;99.90;;;;;;5080430;28;20048;-68
2021/10/15 03:41:08;;;;;;;12.60;6.55;;;13.60;99.90;;;;;;5081600;28;20041;-68
2021/10/15 03:43:34;;;;;;;18.23;5.72;;;13.60;99.90;;;;;;5076756;28;20048;-68
2021/10/15 03:46:00;;;;;;;16.92;4.85;;;13.70;99.90;;;;;;5100955;28;20032;-68
2021/10/15 03:48:25;;;;;;;16.67;6.13;;;13.70;99.90;;;;;;5094082;28;20071;-67
2021/10/15 03:50:51;;;;;;;18.80;5.88;;;13.70;99.90;;;;;;5082713;28;20059;-68
2021/10/15 03:53:17;;;;;;;10.52;4.53;;;13.70;99.90;;;;;;5103623;28;20040;-68
2021/10/15 03:55:43;;;;;;;16.42;4.97;;;13.80;99.90;;;;;;5099347;28;20051;-68
2021/10/15 03:58:08;;;;;;;13.95;5.00;;;13.80;99.90;;;;;;5092477;28;20028;-68
2021/10/15 04:00:34;;;;;;;16.85;5.28;;;13.80;99.90;;;;;;5098667;28;20044;-68
2021/10/15 04:03:00;;;;;;;18.92;4.35;;;13.80;99.90;;;;;;5089732;28;20071;-68
2021/10/15 04:05:25;;;;;;;14.07;4.20;;;13.80;99.90;;;;;;5098012;28;20047;-68
2021/10/15 04:08:10;;;;;;;14.23;6.10;;;13.80;99.90;;;;;;5088833;28;20076;-68
2021/10/15 04:10:35;;;;;;;17.52;5.38;;;13.80;99.90;;;;;;5094569;28;20036;-68
2021/10/15 04:13:01;;;;;;;13.13;5.07;;;13.70;99.90;;;;;;5072669;28;20099;-68
2021/10/15 04:15:27;;;;;;;12.88;5.13;;;13.80;99.90;;;;;;5080095;28;20074;-68
2021/10/15 04:17:52;;;;;;;18.02;6.28;;;13.60;99.90;;;;;;5090433;28;20037;-69
2021/10/15 04:20:18;;;;;;;19.67;7.05;;;13.60;99.90;;;;;;5097785;28;20066;-70
2021/10/15 04:22:44;;;;;;;14.38;6.38;;;13.40;99.90;;;;;;5092148;28;20393;-70
2021/10/15 04:25:09;;;;;;;18.70;6.82;;;13.20;99.90;;;;;;5095964;28;20032;-69
2021/10/15 04:27:35;;;;;;;17.13;7.05;;;13.10;99.90;;;;;;5093674;28;20040;-68
2021/10/15 04:30:01;;;;;;;15.20;6.60;;;12.90;99.90;;;;;;5094056;28;20492;-71
2021/10/15 04:32:27;;;;;;;24.20;9.13;;;12.90;99.90;;;;;;5098628;28;20044;-70
2021/10/15 04:34:52;;;;;;;17.40;9.43;;;12.80;99.90;;;;;;5096932;28;20082;-71
2021/10/15 04:37:18;;;;;;;19.05;9.30;;;12.70;99.90;;;;;;5097449;28;20470;-73
2021/10/15 04:39:43;;;;;;;15.52;7.53;;;12.60;99.90;;;;;;5090673;28;20051;-73
2021/10/15 04:42:09;;;;;;;21.20;8.95;;;12.60;99.90;;;;;;5098364;28;20032;-73
2021/10/15 04:44:35;;;;;;;14.77;6.05;;;12.60;99.90;;;;;;5094228;28;20092;-72
2021/10/15 04:47:00;;;;;;;15.88;6.30;;;12.50;99.90;;;;;;5096215;28;20037;-74
2021/10/15 04:49:26;;;;;;;14.98;3.25;;;12.50;99.90;;;;;;5105374;28;20056;-73
2021/10/15 04:51:53;;;;;;;7.32;2.38;;;12.30;99.90;;;;;;5071408;28;20531;-70
2021/10/15 04:54:18;;;;;;;9.68;2.30;;;12.10;99.90;;;;;;5093863;28;20044;-70
2021/10/15 04:56:44;;;;;;;10.63;2.00;;;12.00;99.90;;;;;;5099896;28;20040;-70
2021/10/15 04:59:10;;;;;;;10.82;1.48;;;11.80;99.90;;;;;;5102590;28;20040;-69
2021/10/15 05:01:35;;;;;;;9.43;0.93;;;11.70;99.90;;;;;;5095561;28;20040;-70
2021/10/15 05:04:01;;;;;;;7.60;1.13;;;11.30;99.90;;;;;;5102215;28;20036;-70
2021/10/15 05:06:26;;;;;;;8.52;1.13;;;11.00;99.90;;;;;;5095336;28;20048;-70
2021/10/15 05:11:33;;;;;;;10.57;1.83;;;10.70;99.90;;;;;;5094377;28;20040;-69
2021/10/15 05:14:00;;;;;;;18.08;1.48;;;10.60;99.90;;;;;;5083687;28;20066;-70
2021/10/15 05:16:26;;;;;;;12.90;1.80;;;10.60;99.90;;;;;;5094303;28;20040;-70
2021/10/15 05:18:52;;;;;;;14.40;1.60;;;10.50;99.90;;;;;;5101628;28;20066;-69
2021/10/15 05:21:18;;;;;;;20.88;1.85;;;10.50;99.90;;;;;;5091803;28;20056;-70
2021/10/15 05:23:44;;;;;;;20.45;2.97;;;10.50;99.90;;;;;;5101244;28;20044;-70
2021/10/15 05:26:09;;;;;;;21.30;2.88;;;10.50;99.90;;;;;;5094010;28;20569;-70
2021/10/15 05:28:35;;;;;;;22.92;2.78;;;10.50;99.90;;;;;;5069433;28;20098;-70
2021/10/15 05:31:01;;;;;;;19.40;2.00;;;10.40;99.90;;;;;;5096369;28;20044;-70
2021/10/15 05:33:27;;;;;;;22.13;2.47;;;10.30;99.90;;;;;;5079645;28;20077;-70
2021/10/15 05:35:52;;;;;;;21.85;2.33;;;10.30;99.90;;;;;;5080658;28;20079;-70
2021/10/15 05:38:18;;;;;;;22.75;2.55;;;10.20;99.90;;;;;;5095447;28;20037;-70
2021/10/15 05:40:44;;;;;;;12.30;2.15;;;10.30;99.90;;;;;;5099476;28;20121;-69
2021/10/15 05:43:09;;;;;;;18.35;2.75;;;10.20;99.90;;;;;;5093855;28;20033;-70
2021/10/15 05:45:35;;;;;;;13.95;1.85;;;10.20;99.90;;;;;;5101078;28;20041;-71
2021/10/15 05:48:01;;;;;;;21.85;2.20;;;10.00;99.90;;;;;;5093433;28;20045;-69
2021/10/15 05:50:28;;;;;;;17.85;2.70;;;10.00;99.90;;;;;;5082556;28;20101;-70
2021/10/15 05:52:54;;;;;;;17.70;2.28;;;10.00;99.90;;;;;;5093605;28;20044;-70
2021/10/15 05:55:45;;;;;;;17.58;2.33;;;9.90;99.90;;;;;;5080182;28;20655;-70
2021/10/15 06:00:55;;;;;;;16.10;2.03;;;9.90;99.90;;;;;;5097715;28;20047;-70
2021/10/15 06:03:24;;;;;;;15.80;1.63;;;9.90;99.90;;;;;;5098232;28;20047;-70
2021/10/15 06:14:26;;;;;;;17.17;1.95;;;9.80;99.90;;;;;;5062108;28;20598;-70
2021/10/15 06:16:59;;;;;;;17.02;2.80;;;9.80;99.90;;;;;;5036086;28;20214;-70
2021/10/15 06:19:26;;;;;;;23.80;2.58;;;9.80;99.90;;;;;;5052317;28;20070;-71
2021/10/15 06:21:53;;;;;;;16.42;2.33;;;9.90;99.90;;;;;;5058896;28;20071;-70
2021/10/15 06:24:19;;;;;;;19.30;2.67;;;9.90;99.90;;;;;;5061696;28;20047;-70
2021/10/15 06:26:45;;;;;;;15.25;2.15;;;9.90;99.90;;;;;;5061347;28;20532;-72
2021/10/15 06:29:11;;;;;;;16.85;2.88;;;9.80;99.90;;;;;;5061378;28;20044;-70
2021/10/15 06:31:38;;;;;;;22.10;2.90;;;9.80;99.90;;;;;;5061169;28;20063;-70
2021/10/15 06:34:03;;;;;;;20.60;2.05;;;9.80;99.90;;;;;;5061670;28;20048;-70
2021/10/15 06:36:29;;;;;;;20.42;3.17;;;9.80;99.90;;;;;;5061564;28;20041;-70
2021/10/15 06:38:55;;;;;;;15.52;1.67;;;9.80;99.90;;;;;;5044829;28;20077;-69
2021/10/15 06:41:21;;;;;;;22.27;2.60;;;9.90;99.90;;;;;;5059066;28;20052;-69
2021/10/15 06:43:46;;;;;;;16.67;3.53;;;9.80;99.90;;;;;;5059535;28;20037;-69
2021/10/15 06:46:13;;;;;;;23.65;3.30;;;9.90;99.90;;;;;;5090060;28;20084;-69
2021/10/15 06:48:39;;;;;;;18.25;3.30;;;9.90;99.90;;;;;;5100123;28;20051;-69
2021/10/15 06:51:05;;;;;;;11.75;2.25;;;9.80;99.90;;;;;;5092659;28;20052;-69
2021/10/15 06:53:31;;;;;;;13.32;2.13;;;9.90;99.90;;;;;;5081261;28;20043;-69
2021/10/15 06:55:56;;;;;;;12.95;1.98;;;9.90;99.90;;;;;;5073248;28;20036;-70
2021/10/15 06:58:22;;;;;;;6.97;2.20;;;9.90;99.90;;;;;;5099350;28;20093;-69
2021/10/15 07:00:48;;;;;;;21.63;2.53;;;9.80;99.90;;;;;;5101333;28;20083;-69
2021/10/15 07:03:18;;;;;;;11.10;1.75;;;9.90;99.90;;;;;;5072515;28;20048;-69
2021/10/15 07:05:44;;;;;;;9.55;2.28;;;9.80;99.90;;;;;;5101504;28;20086;-69
2021/10/15 07:08:10;;;;;;;12.50;1.80;;;9.70;99.90;;;;;;5094758;28;20093;-69
2021/10/15 07:10:35;;;;;;;22.20;3.45;;;9.70;99.90;;;;;;5101184;28;20036;-69
2021/10/15 07:13:01;;;;;;;15.23;2.83;;;9.60;99.90;;;;;;5094190;28;20044;-69
2021/10/15 07:15:27;;;;;;;13.35;2.60;;;9.60;99.90;;;;;;5097447;28;20160;-69
2021/10/15 07:17:53;;;;;;;5.63;1.65;;;9.60;99.90;;;;;;5095367;28;20040;-69
2021/10/15 07:20:18;;;;;;;20.00;2.08;;;9.60;99.90;;;;;;5102249;28;20036;-69
2021/10/15 07:22:44;;;;;;;13.52;2.45;;;9.60;99.90;;;;;;5096870;28;20122;-69
2021/10/15 07:25:10;;;;;;;10.50;1.92;;;9.60;99.90;;;;;;5088600;28;20036;-69
2021/10/15 07:27:38;;;;;;;8.93;1.73;;;9.60;99.90;;;;;;5098242;28;20109;-69
2021/10/15 07:30:05;;;;;;;16.23;2.97;;;9.60;99.90;;;;;;5097342;28;20047;-69
2021/10/15 07:32:33;;;;;;;20.70;1.95;;;9.60;99.90;;;;;;5081427;28;20047;-69
2021/10/15 07:34:58;;;;;;;12.25;2.28;;;9.70;99.90;;;;;;5097692;28;20051;-69
2021/10/15 07:37:25;;;;;;;10.15;1.48;;;9.50;99.90;;;;;;5083816;28;20170;-68
2021/10/15 07:39:52;;;;;;;12.73;1.50;;;9.40;99.90;;;;;;5095542;28;20127;-68
2021/10/15 07:42:17;;;;;;;10.93;2.37;;;9.30;99.90;;;;;;5084842;28;20048;-68
2021/10/15 07:44:43;;;;;;;15.63;2.13;;;9.30;99.90;;;;;;5077371;28;20340;-68
2021/10/15 07:47:09;;;;;;;15.10;2.03;;;9.30;99.90;;;;;;5085673;28;20036;-68
2021/10/15 07:49:35;;;;;;;16.45;2.97;;;9.20;99.90;;;;;;5094538;28;20056;-68
2021/10/15 07:52:00;;;;;;;12.10;1.75;;;9.00;99.90;;;;;;5101685;28;20054;-70
2021/10/15 07:54:26;;;;;;;21.52;2.60;;;9.20;99.90;;;;;;5085934;28;20048;-68
2021/10/15 07:56:52;;;;;;;8.68;1.75;;;9.30;99.90;;;;;;5085446;28;20051;-69
2021/10/15 07:59:18;;;;;;;15.07;3.42;;;9.50;99.90;;;;;;5090172;28;20037;-69
2021/10/15 08:01:44;;;;;;;20.17;3.20;;;9.60;99.90;;;;;;5085417;28;20496;-69
2021/10/15 08:04:10;;;;;;;17.13;3.08;;;9.80;99.90;;;;;;5098707;28;20113;-69
2021/10/15 08:06:36;;;;;;;26.35;3.78;;;10.00;99.90;;;;;;5090045;28;20047;-69
2021/10/15 08:09:02;;;;;;;27.63;3.75;;;10.10;99.90;;;;;;5073709;28;20082;-69
2021/10/15 08:11:28;;;;;;;25.25;3.00;;;10.20;99.90;;;;;;5094216;28;20107;-69
2021/10/15 08:13:53;;;;;;;17.35;2.40;;;10.30;99.90;;;;;;5094078;28;20057;-69
2021/10/15 08:16:19;;;;;;;14.55;2.55;;;10.30;99.90;;;;;;5085397;28;20044;-69
2021/10/15 08:18:46;;;;;;;19.55;3.03;;;10.40;99.90;;;;;;5098250;28;20104;-69
2021/10/15 08:21:13;;;;;;;18.38;2.15;;;10.40;99.90;;;;;;5094662;28;20096;-70
2021/10/15 08:23:39;;;;;;;12.77;2.10;;;10.50;99.90;;;;;;5084260;28;20113;-69
2021/10/15 08:26:05;;;;;;;14.38;1.95;;;10.50;99.90;;;;;;5101822;28;20044;-69
2021/10/15 08:28:34;;;;;;;11.18;1.95;;;10.60;99.90;;;;;;5101746;28;20086;-69
2021/10/15 08:31:00;;;;;;;14.05;1.73;;;10.60;99.90;;;;;;5089525;28;20048;-69
2021/10/15 08:33:26;;;;;;;12.82;1.92;;;10.50;99.90;;;;;;5100669;28;20040;-69
2021/10/15 08:35:52;;;;;;;15.07;1.90;;;10.50;99.90;;;;;;5076078;28;20078;-69
2021/10/15 08:38:18;;;;;;;19.42;2.53;;;10.50;99.90;;;;;;5100981;28;20052;-69
2021/10/15 08:40:48;;;;;;;15.85;3.10;;;10.70;99.90;;;;;;5093058;28;20044;-69
2021/10/15 08:43:13;;;;;;;22.50;2.40;;;10.80;99.90;;;;;;5082216;28;20052;-68
2021/10/15 08:45:40;;;;;;;12.60;2.08;;;10.90;99.90;;;;;;5106465;28;20412;-68
2021/10/15 08:48:05;;;;;;;8.40;1.67;;;10.90;99.90;;;;;;5099501;28;20044;-68
2021/10/15 08:50:32;;;;;;;10.65;2.22;;;10.90;99.90;;;;;;5084167;28;20132;-68
2021/10/15 08:52:58;;;;;;;18.85;3.83;;;10.90;99.90;;;;;;5079129;28;20538;-69
2021/10/15 08:55:25;;;;;;;22.77;3.03;;;11.00;99.90;;;;;;5085083;28;20044;-69
2021/10/15 08:57:56;;;;;;;23.33;3.53;;;10.90;99.90;;;;;;5078396;28;20068;-69
2021/10/15 09:00:43;;;;;;;12.07;2.35;;;10.70;99.90;;;;;;5079749;28;20040;-69
2021/10/15 09:03:22;;;;;;;18.13;3.13;;;10.40;99.90;;;;;;5085689;28;20052;-69
2021/10/15 09:06:03;;;;;;;12.15;2.58;;;10.20;99.90;;;;;;5081404;28;20048;-69
2021/10/15 09:08:46;;;;;;;15.50;2.25;;;10.30;99.90;;;;;;5074466;28;20056;-69
2021/10/15 09:11:31;;;;;;;26.35;3.78;;;10.50;99.90;;;;;;5084240;28;20531;-70
2021/10/15 09:14:36;;;;;;;21.20;3.83;;;10.70;99.90;;;;;;5075360;28;20100;-70
2021/10/15 09:17:09;;;;;;;16.20;3.13;;;10.90;99.90;;;;;;5023749;28;20045;-70
2021/10/15 09:19:41;;;;;;;18.35;3.40;;;10.90;99.90;;;;;;5018390;28;20073;-70
2021/10/15 09:22:10;;;;;;;16.67;2.42;;;11.10;99.90;;;;;;5023566;28;20042;-69
2021/10/15 09:24:40;;;;;;;24.52;2.95;;;11.00;99.90;;;;;;5022497;28;20054;-69
2021/10/15 09:27:23;;;;;;;19.73;2.95;;;11.00;99.90;;;;;;5023354;28;20134;-69
2021/10/15 09:30:07;;;;;;;20.10;3.80;;;11.10;99.90;;;;;;5017808;28;20145;-70
2021/10/15 09:32:47;;;;;;;13.82;2.92;;;11.80;99.90;;;;;;5023176;28;20108;-70
2021/10/15 09:35:19;;;;;;;22.90;3.65;;;12.80;99.90;;;;;;5023139;28;20066;-70
2021/10/15 09:37:46;;;;;;;27.00;3.47;;;13.10;99.90;;;;;;5023360;28;20057;-70
2021/10/15 09:40:16;;;;;;;25.30;4.22;;;13.00;99.90;;;;;;5022562;28;20042;-70
2021/10/15 09:42:44;;;;;;;15.38;2.83;;;12.80;99.90;;;;;;5015811;28;20054;-69
2021/10/15 09:45:20;;;;;;;17.77;3.85;;;12.50;99.90;;;;;;5019167;28;20046;-69
2021/10/15 09:47:49;;;;;;;18.58;3.88;;;12.40;99.90;;;;;;5044009;28;20052;-69
2021/10/15 09:50:17;;;;;;;26.33;4.45;;;12.60;99.90;;;;;;5078529;28;20052;-69
2021/10/15 09:52:49;;;;;;;24.40;4.60;;;12.80;99.90;;;;;;5098286;28;20122;-69
2021/10/15 09:55:19;;;;;;;26.70;3.40;;;12.90;99.90;;;;;;5104334;28;20046;-69
2021/10/15 09:57:51;;;;;;;20.13;3.10;;;13.10;99.90;;;;;;5080191;28;20116;-69
2021/10/15 10:00:18;;;;;;;24.38;3.17;;;13.30;99.90;;;;;;5098600;28;20047;-69
2021/10/15 10:02:44;;;;;;;17.73;2.45;;;13.30;99.90;;;;;;5091184;28;20063;-69
2021/10/15 10:05:13;;;;;;;18.48;2.78;;;13.30;99.90;;;;;;5100989;28;20048;-69
2021/10/15 10:07:44;;;;;;;19.42;3.63;;;13.50;99.90;;;;;;5075176;28;20048;-69
2021/10/15 10:10:14;;;;;;;11.73;2.20;;;13.40;99.90;;;;;;5081559;28;20043;-69
2021/10/15 10:12:40;;;;;;;19.08;3.60;;;13.60;99.90;;;;;;5093436;28;20041;-69
2021/10/15 10:15:12;;;;;;;15.05;3.65;;;13.90;99.90;;;;;;5091530;28;20097;-69
2021/10/15 10:17:52;;;;;;;18.42;4.10;;;13.70;99.90;;;;;;5076685;28;20245;-69
2021/10/15 10:20:25;;;;;;;17.90;3.70;;;13.40;99.90;;;;;;5092100;28;20615;-69
2021/10/15 10:23:18;;;;;;;25.38;4.25;;;13.50;99.90;;;;;;5093382;28;20100;-70
2021/10/15 10:25:45;;;;;;;15.88;3.28;;;13.60;99.90;;;;;;5094518;28;20048;-70
2021/10/15 10:28:14;;;;;;;21.42;4.07;;;13.70;99.90;;;;;;5092664;28;20524;-70
2021/10/15 10:30:43;;;;;;;17.95;4.70;;;13.90;99.90;;;;;;5099396;28;20043;-71
2021/10/15 10:33:08;;;;;;;10.98;2.78;;;13.90;99.90;;;;;;5099943;28;20055;-70
2021/10/15 10:35:35;;;;;;;6.00;1.77;;;13.50;99.90;;;;;;5100100;28;20376;-70
2021/10/15 10:38:19;;;;;;;18.08;2.85;;;13.20;99.90;;;;;;5093694;28;20045;-70
2021/10/15 10:40:59;;;;;;;9.40;2.08;;;13.20;99.90;;;;;;5090699;28;20138;-69
2021/10/15 10:43:34;;;;;;;16.10;2.65;;;13.30;99.90;;;;;;5100012;28;20389;-69
2021/10/15 10:46:08;;;;;;;13.45;2.78;;;13.40;99.90;;;;;;5081037;28;20044;-69
2021/10/15 10:48:54;;;;;;;10.07;2.58;;;13.50;99.90;;;;;;5091482;28;20072;-70
2021/10/15 10:51:31;;;;;;;10.10;1.88;;;13.40;99.90;;;;;;5085853;28;20086;-70
2021/10/15 10:54:06;;;;;;;8.73;2.10;;;13.50;99.90;;;;;;5095588;28;20044;-70
2021/10/15 10:56:40;;;;;;;13.70;2.20;;;13.50;99.70;;;;;;5098316;28;20044;-70
2021/10/15 10:59:18;;;;;;;11.98;2.00;;;13.60;99.90;;;;;;5068679;28;20048;-70
2021/10/15 11:01:50;;;;;;;12.80;1.90;;;13.70;97.80;;;;;;5094214;28;20107;-70
2021/10/15 11:04:27;;;;;;;11.77;2.60;;;13.70;98.60;;;;;;5101442;28;20044;-71
2021/10/15 11:07:03;;;;;;;12.13;2.70;;;13.80;99.90;;;;;;5094324;28;20070;-70
2021/10/15 11:09:50;;;;;;;18.88;2.50;;;13.90;97.90;;;;;;5100583;28;20105;-70
2021/10/15 11:12:28;;;;;;;14.25;2.50;;;14.00;99.90;;;;;;5084212;28;20044;-70
2021/10/15 11:14:57;;;;;;;16.38;3.05;;;13.80;99.90;;;;;;5083957;28;20058;-71
2021/10/15 11:17:35;;;;;;;18.08;3.15;;;13.80;99.90;;;;;;5103908;28;20044;-71
2021/10/15 11:20:46;;;;;;;8.02;1.80;;;14.10;99.90;;;;;;5101412;28;20048;-71
2021/10/15 11:23:12;;;;;;;8.82;2.08;;;14.10;99.90;;;;;;5076226;28;20067;-70
2021/10/15 11:25:46;;;;;;;10.35;2.67;;;14.20;98.20;;;;;;5098455;28;20036;-71
2021/10/15 11:28:14;;;;;;;10.52;3.22;;;14.20;99.90;;;;;;5093547;28;20504;-70
2021/10/15 11:30:48;;;;;;;11.63;2.53;;;14.40;99.90;;;;;;5086694;28;20389;-71
2021/10/15 11:33:16;;;;;;;10.18;2.20;;;14.60;99.90;;;;;;5095101;28;20064;-70
2021/10/15 11:35:44;;;;;;;9.27;2.30;;;15.00;99.90;;;;;;5099864;28;20074;-71
2021/10/15 11:38:21;;;;;;;15.95;3.20;;;15.30;99.90;;;;;;5094287;28;20539;-70
2021/10/15 11:40:48;;;;;;;17.23;3.53;;;15.80;99.90;;;;;;5085883;28;20040;-70
2021/10/15 11:43:24;;;;;;;9.57;2.75;;;16.00;99.90;;;;;;5093700;28;20052;-70
2021/10/15 11:46:02;;;;;;;11.05;2.35;;;16.00;99.90;;;;;;5086575;28;20119;-70
2021/10/15 11:48:30;;;;;;;9.40;2.42;;;16.30;99.90;;;;;;5093851;28;20045;-69
2021/10/15 11:51:02;;;;;;;12.27;2.97;;;15.90;99.90;;;;;;5099440;28;20053;-69
2021/10/15 11:53:31;;;;;;;11.57;2.30;;;15.40;99.90;;;;;;5097672;28;20089;-69
2021/10/15 11:55:57;;;;;;;11.02;1.80;;;15.60;99.90;;;;;;5089676;28;20384;-69
2021/10/15 11:58:30;;;;;;;14.18;2.13;;;15.40;99.90;;;;;;5096966;28;20146;-69
2021/10/15 12:01:07;;;;;;;11.82;2.60;;;15.70;99.90;;;;;;5101707;28;20036;-69
2021/10/15 12:03:43;;;;;;;15.05;2.35;;;16.30;99.90;;;;;;5103964;28;20049;-69
2021/10/15 12:06:13;;;;;;;11.60;2.17;;;16.00;99.90;;;;;;5102046;28;20041;-69
2021/10/15 12:08:40;;;;;;;8.43;2.15;;;15.50;99.90;;;;;;5103934;28;20120;-69
2021/10/15 12:11:15;;;;;;;12.30;2.17;;;15.40;99.90;;;;;;5100203;28;20046;-69
2021/10/15 12:13:41;;;;;;;13.70;1.67;;;15.30;99.90;;;;;;5104348;28;20040;-69
2021/10/15 12:16:29;;;;;;;10.38;1.35;;;15.20;99.90;;;;;;5099230;28;20051;-69
2021/10/15 12:18:59;;;;;;;6.55;1.73;;;15.80;99.90;;;;;;5102176;28;20041;-69
2021/10/15 12:21:39;;;;;;;13.68;1.75;;;16.20;99.90;;;;;;5089576;28;20045;-68
2021/10/15 12:24:08;;;;;;;9.07;2.80;;;16.10;99.90;;;;;;5101877;28;20047;-69
2021/10/15 12:26:34;;;;;;;6.35;1.50;;;16.70;99.90;;;;;;5100632;28;20033;-69
2021/10/15 12:29:02;;;;;;;9.27;1.70;;;16.70;99.90;;;;;;5102815;28;20515;-69
2021/10/15 12:31:34;;;;;;;10.15;2.28;;;16.40;99.90;;;;;;5078571;28;20540;-69
2021/10/15 12:34:13;;;;;;;10.55;2.47;;;16.00;99.90;;;;;;5103797;28;20040;-69
2021/10/15 12:36:41;;;;;;;7.93;1.52;;;15.90;99.90;;;;;;5099703;28;20051;-69
2021/10/15 12:39:15;;;;;;;;;;;15.20;99.90;;;;;;5103823;28;20044;-69
2021/10/15 12:41:41;;;;;;;7.95;1.90;;;15.40;99.90;;;;;;5098180;28;19974;-69
2021/10/15 12:44:28;;;;;;;5.32;1.95;;;15.80;99.90;;;;;;5104025;28;20036;-69
2021/10/15 12:47:02;;;;;;;6.95;2.33;;;16.10;99.90;;;;;;5096080;28;20076;-69
2021/10/15 12:49:30;;;;;;;10.93;1.85;;;16.20;99.90;;;;;;5082613;28;20118;-68
2021/10/15 12:51:57;;;;;;;7.63;1.70;;;16.40;99.90;;;;;;5098785;28;20420;-69
2021/10/15 12:55:05;;;;;;;7.95;2.10;;;17.00;99.90;;;;;;5102824;28;20036;-69
2021/10/15 12:57:35;;;;;;;5.80;1.20;;;16.80;99.70;;;;;;5020882;28;20042;-69
2021/10/15 13:00:10;;;;;;;8.80;1.60;;;16.80;98.10;;;;;;5023798;28;20438;-69
2021/10/15 13:02:37;;;;;;;5.63;1.48;;;17.20;99.90;;;;;;5023391;28;20546;-69